Time,TemperatureF,DewpointF,PressureIn,WindDirection,WindDirectionDegrees,WindSpeedMPH,WindSpeedGustMPH,Humidity,HourlyPrecipIn,Conditions,Clouds,dailyrainin,SoftwareType,DateUTC
2013-02-10 00:05:00,36.3,32.8,30.14,East,90,0.0,-999.0,87,-99.99,,,0.00,Acu-Link.com,2013-02-10 05:05:00,
2013-02-10 00:20:00,36.0,32.8,30.14,East,90,0.0,-999.0,88,-99.99,,,0.00,Acu-Link.com,2013-02-10 05:20:00,
2013-02-10 00:35:00,35.8,32.6,30.14,East,90,0.0,-999.0,88,-99.99,,,0.00,Acu-Link.com,2013-02-10 05:35:00,
2013-02-10 00:50:00,35.8,32.6,30.14,East,90,0.0,-999.0,88,-99.99,,,0.00,Acu-Link.com,2013-02-10 05:50:00,
2013-02-10 01:05:00,35.6,33.2,30.15,East,90,0.0,-999.0,91,-99.99,,,0.00,Acu-Link.com,2013-02-10 06:05:00,
2013-02-10 01:21:00,35.6,32.7,30.14,East,90,0.0,-999.0,89,-99.99,,,0.00,Acu-Link.com,2013-02-10 06:21:00,
2013-02-10 01:36:00,35.8,32.6,30.14,East,90,0.0,-999.0,88,-99.99,,,0.00,Acu-Link.com,2013-02-10 06:36:00,
2013-02-10 01:51:00,35.2,32.6,30.14,East,90,0.0,-999.0,90,-99.99,,,0.00,Acu-Link.com,2013-02-10 06:51:00,
2013-02-10 02:07:00,34.9,32.5,30.15,East,90,0.0,-999.0,91,-99.99,,,0.00,Acu-Link.com,2013-02-10 07:07:00,
2013-02-10 02:22:00,35.1,33.0,30.15,East,90,0.0,-999.0,92,-99.99,,,0.00,Acu-Link.com,2013-02-10 07:22:00,
2013-02-10 02:37:00,35.4,33.3,30.14,East,90,0.0,-999.0,92,-99.99,,,0.00,Acu-Link.com,2013-02-10 07:37:00,
2013-02-10 02:52:00,35.4,33.6,30.14,East,90,0.0,-999.0,93,-99.99,,,0.00,Acu-Link.com,2013-02-10 07:52:00,
2013-02-10 03:07:00,35.8,33.7,30.13,East,90,0.0,-999.0,92,-99.99,,,0.00,Acu-Link.com,2013-02-10 08:07:00,
2013-02-10 03:23:00,35.8,33.7,30.13,East,90,0.0,-999.0,92,-99.99,,,0.00,Acu-Link.com,2013-02-10 08:23:00,
2013-02-10 03:38:00,36.0,34.2,30.14,East,90,1.1,-999.0,93,-99.99,,,0.00,Acu-Link.com,2013-02-10 08:38:00,
2013-02-10 03:53:00,36.1,34.3,30.15,East,90,1.1,-999.0,93,-99.99,,,0.00,Acu-Link.com,2013-02-10 08:53:00,
2013-02-10 04:19:00,36.3,34.2,30.16,East,90,0.0,-999.0,92,-99.99,,,0.00,Acu-Link.com,2013-02-10 09:19:00,
2013-02-10 04:34:00,36.7,34.6,30.15,East,90,0.0,-999.0,92,-99.99,,,0.00,Acu-Link.com,2013-02-10 09:34:00,
2013-02-10 04:49:00,36.7,34.9,30.15,East,90,0.0,-999.0,93,-99.99,,,0.00,Acu-Link.com,2013-02-10 09:49:00,
2013-02-10 05:04:00,36.9,35.3,30.15,East,90,0.0,-999.0,94,-99.99,,,0.00,Acu-Link.com,2013-02-10 10:04:00,
2013-02-10 05:19:00,36.9,35.3,30.16,East,90,0.0,-999.0,94,-99.99,,,0.00,Acu-Link.com,2013-02-10 10:19:00,
2013-02-10 05:35:00,36.5,35.2,30.15,East,90,0.0,-999.0,95,-99.99,,,0.00,Acu-Link.com,2013-02-10 10:35:00,
2013-02-10 05:50:00,36.5,34.9,30.15,East,90,0.0,-999.0,94,-99.99,,,0.00,Acu-Link.com,2013-02-10 10:50:00,
2013-02-10 06:05:00,36.5,34.9,30.16,East,90,0.0,-999.0,94,-99.99,,,0.00,Acu-Link.com,2013-02-10 11:05:00,
2013-02-10 06:21:00,36.5,35.2,30.16,East,90,0.0,-999.0,95,-99.99,,,0.00,Acu-Link.com,2013-02-10 11:21:00,
2013-02-10 06:36:00,36.5,35.2,30.15,East,90,0.0,-999.0,95,-99.99,,,0.00,Acu-Link.com,2013-02-10 11:36:00,
2013-02-10 06:51:00,36.5,35.5,30.16,East,90,0.0,-999.0,96,-99.99,,,0.00,Acu-Link.com,2013-02-10 11:51:00,
2013-02-10 07:06:00,36.5,35.2,30.16,East,90,0.0,-999.0,95,-99.99,,,0.00,Acu-Link.com,2013-02-10 12:06:00,
2013-02-10 07:21:00,36.3,35.3,30.16,East,90,0.0,-999.0,96,-99.99,,,0.00,Acu-Link.com,2013-02-10 12:21:00,
2013-02-10 07:37:00,36.3,35.3,30.16,East,90,0.0,-999.0,96,-99.99,,,0.00,Acu-Link.com,2013-02-10 12:37:00,
2013-02-10 07:52:00,36.3,35.5,30.16,East,90,0.0,-999.0,97,-99.99,,,0.00,Acu-Link.com,2013-02-10 12:52:00,
2013-02-10 08:07:00,36.5,34.9,30.17,East,90,0.0,-999.0,94,-99.99,,,0.00,Acu-Link.com,2013-02-10 13:07:00,
2013-02-10 08:23:00,36.7,34.3,30.16,East,90,0.0,-999.0,91,-99.99,,,0.00,Acu-Link.com,2013-02-10 13:23:00,
2013-02-10 08:38:00,37.4,36.1,30.16,East,90,0.0,-999.0,95,-99.99,,,0.00,Acu-Link.com,2013-02-10 13:38:00,
2013-02-10 08:53:00,38.3,36.7,30.18,East,90,0.0,-999.0,94,-99.99,,,0.00,Acu-Link.com,2013-02-10 13:53:00,
2013-02-10 09:08:00,39.6,37.7,30.19,East,90,0.0,-999.0,93,-99.99,,,0.00,Acu-Link.com,2013-02-10 14:08:00,
2013-02-10 09:23:00,41.2,38.5,30.20,South,180,1.1,-999.0,90,-99.99,,,0.00,Acu-Link.com,2013-02-10 14:23:00,
2013-02-10 09:39:00,43.3,38.5,30.20,South,180,0.0,-999.0,83,-99.99,,,0.00,Acu-Link.com,2013-02-10 14:39:00,
2013-02-10 09:54:00,47.1,36.3,30.20,West,270,1.7,-999.0,66,-99.99,,,0.00,Acu-Link.com,2013-02-10 14:54:00,
2013-02-10 10:09:00,50.0,35.8,30.20,NNE,22,1.1,-999.0,58,-99.99,,,0.00,Acu-Link.com,2013-02-10 15:09:00,
2013-02-10 10:24:00,49.8,34.7,30.20,ENE,67,1.7,-999.0,56,-99.99,,,0.00,Acu-Link.com,2013-02-10 15:24:00,
2013-02-10 10:39:00,50.9,35.3,30.19,NNE,22,1.1,-999.0,55,-99.99,,,0.00,Acu-Link.com,2013-02-10 15:39:00,
2013-02-10 10:55:00,52.9,35.8,30.19,WSW,247,1.1,-999.0,52,-99.99,,,0.00,Acu-Link.com,2013-02-10 15:55:00,
2013-02-10 11:10:00,52.2,34.1,30.18,SW,225,2.7,-999.0,50,-99.99,,,0.00,Acu-Link.com,2013-02-10 16:10:00,
2013-02-10 11:25:00,53.6,34.9,30.16,ESE,112,1.1,-999.0,49,-99.99,,,0.00,Acu-Link.com,2013-02-10 16:25:00,
2013-02-10 11:40:00,54.5,35.2,30.17,NE,45,1.7,-999.0,48,-99.99,,,0.00,Acu-Link.com,2013-02-10 16:40:00,
2013-02-10 11:56:00,54.5,33.6,30.17,NW,315,3.2,-999.0,45,-99.99,,,0.00,Acu-Link.com,2013-02-10 16:56:00,
2013-02-10 12:11:00,54.1,33.2,30.14,NNE,22,2.7,-999.0,45,-99.99,,,0.00,Acu-Link.com,2013-02-10 17:11:00,
2013-02-10 12:26:00,54.7,32.1,30.12,SW,225,1.7,-999.0,42,-99.99,,,0.00,Acu-Link.com,2013-02-10 17:26:00,
2013-02-10 12:41:00,54.7,33.8,30.10,South,180,2.2,-999.0,45,-99.99,,,0.00,Acu-Link.com,2013-02-10 17:41:00,
2013-02-10 12:56:00,55.6,36.2,30.08,NNE,22,4.2,-999.0,48,-99.99,,,0.00,Acu-Link.com,2013-02-10 17:56:00,
2013-02-10 13:12:00,55.4,38.6,30.07,NE,45,3.7,-999.0,53,-99.99,,,0.00,Acu-Link.com,2013-02-10 18:12:00,
2013-02-10 13:27:00,55.9,40.0,30.09,SSW,202,1.7,-999.0,55,-99.99,,,0.00,Acu-Link.com,2013-02-10 18:27:00,
2013-02-10 13:42:00,55.6,40.6,30.10,SW,225,1.7,-999.0,57,-99.99,,,0.00,Acu-Link.com,2013-02-10 18:42:00,
2013-02-10 13:57:00,55.6,41.5,30.07,ENE,67,1.7,-999.0,59,-99.99,,,0.00,Acu-Link.com,2013-02-10 18:57:00,
2013-02-10 14:12:00,54.9,41.7,30.05,South,180,2.7,-999.0,61,-99.99,,,0.00,Acu-Link.com,2013-02-10 19:12:00,
2013-02-10 14:28:00,54.7,41.9,30.05,East,90,1.1,-999.0,62,-99.99,,,0.00,Acu-Link.com,2013-02-10 19:28:00,
2013-02-10 14:43:00,54.5,41.3,30.04,ESE,112,3.2,-999.0,61,-99.99,,,0.00,Acu-Link.com,2013-02-10 19:43:00,
2013-02-10 14:58:00,53.8,41.1,30.04,SW,225,1.7,-999.0,62,-99.99,,,0.00,Acu-Link.com,2013-02-10 19:58:00,
2013-02-10 15:13:00,53.4,41.9,30.03,East,90,1.1,-999.0,65,-99.99,,,0.00,Acu-Link.com,2013-02-10 20:13:00,
2013-02-10 15:29:00,53.1,42.0,30.03,NE,45,2.2,-999.0,66,-99.99,,,0.00,Acu-Link.com,2013-02-10 20:29:00,
2013-02-10 15:44:00,52.5,41.5,30.02,ESE,112,1.1,-999.0,66,-99.99,,,0.00,Acu-Link.com,2013-02-10 20:44:00,
2013-02-10 15:59:00,52.3,41.7,30.02,NNE,22,2.2,-999.0,67,-99.99,,,0.00,Acu-Link.com,2013-02-10 20:59:00,
2013-02-10 16:14:00,51.4,44.1,30.01,East,90,1.1,-999.0,76,-99.99,,,0.00,Acu-Link.com,2013-02-10 21:14:00,
2013-02-10 16:30:00,49.5,46.4,30.02,East,90,0.0,-999.0,89,-99.99,,,0.00,Acu-Link.com,2013-02-10 21:30:00,
2013-02-10 16:45:00,48.0,46.9,30.02,ENE,67,0.0,-999.0,96,-99.99,,,0.01,Acu-Link.com,2013-02-10 21:45:00,
2013-02-10 17:00:00,47.3,46.8,30.00,ENE,67,1.7,-999.0,98,-99.99,,,0.02,Acu-Link.com,2013-02-10 22:00:00,
2013-02-10 17:15:00,46.8,46.3,30.01,East,90,1.7,-999.0,98,-99.99,,,0.06,Acu-Link.com,2013-02-10 22:15:00,
2013-02-10 17:30:00,46.0,45.5,30.02,NE,45,2.7,-999.0,98,-99.99,,,0.08,Acu-Link.com,2013-02-10 22:30:00,
2013-02-10 17:46:00,45.1,44.6,30.02,NNW,337,2.2,-999.0,98,-99.99,,,0.13,Acu-Link.com,2013-02-10 22:46:00,
2013-02-10 18:01:00,44.1,43.6,30.02,NE,45,3.2,-999.0,98,-99.99,,,0.19,Acu-Link.com,2013-02-10 23:01:00,
2013-02-10 18:16:00,43.9,43.4,30.04,ENE,67,1.7,-999.0,98,-99.99,,,0.34,Acu-Link.com,2013-02-10 23:16:00,
2013-02-10 18:31:00,43.7,43.2,30.05,NE,45,0.0,-999.0,98,-99.99,,,0.43,Acu-Link.com,2013-02-10 23:31:00,
2013-02-10 18:46:00,43.7,43.2,30.05,East,90,0.0,-999.0,98,-99.99,,,0.49,Acu-Link.com,2013-02-10 23:46:00,
2013-02-10 19:02:00,43.7,43.2,30.05,NW,315,0.0,-999.0,98,-99.99,,,0.55,Acu-Link.com,2013-02-11 00:02:00,
2013-02-10 19:17:00,43.9,43.4,30.06,NW,315,0.0,-999.0,98,-99.99,,,0.61,Acu-Link.com,2013-02-11 00:17:00,
2013-02-10 19:32:00,43.9,43.4,30.07,NW,315,0.0,-999.0,98,-99.99,,,0.67,Acu-Link.com,2013-02-11 00:32:00,
2013-02-10 19:47:00,44.1,43.6,30.08,NW,315,0.0,-999.0,98,-99.99,,,0.72,Acu-Link.com,2013-02-11 00:47:00,
2013-02-10 20:03:00,44.1,43.6,30.10,NW,315,0.0,-999.0,98,-99.99,,,0.78,Acu-Link.com,2013-02-11 01:03:00,
2013-02-10 20:18:00,44.1,43.6,30.07,NE,45,0.0,-999.0,98,-99.99,,,0.87,Acu-Link.com,2013-02-11 01:18:00,
2013-02-10 20:33:00,44.2,43.7,30.08,NE,45,0.0,-999.0,98,-99.99,,,0.89,Acu-Link.com,2013-02-11 01:33:00,
2013-02-10 20:48:00,44.2,43.7,30.08,NE,45,1.7,-999.0,98,-99.99,,,0.90,Acu-Link.com,2013-02-11 01:48:00,
2013-02-10 21:04:00,44.4,43.9,30.07,ENE,67,0.0,-999.0,98,-99.99,,,0.94,Acu-Link.com,2013-02-11 02:04:00,
2013-02-10 21:19:00,44.4,43.9,30.07,ENE,67,0.0,-999.0,98,-99.99,,,0.99,Acu-Link.com,2013-02-11 02:19:00,
2013-02-10 21:34:00,44.4,43.9,30.06,ENE,67,0.0,-999.0,98,-99.99,,,1.01,Acu-Link.com,2013-02-11 02:34:00,
2013-02-10 21:49:00,44.4,43.9,30.04,ENE,67,0.0,-999.0,98,-99.99,,,1.03,Acu-Link.com,2013-02-11 02:49:00,
2013-02-10 22:04:00,44.4,43.9,30.04,SSW,202,0.0,-999.0,98,-99.99,,,1.06,Acu-Link.com,2013-02-11 03:04:00,
2013-02-10 22:20:00,44.6,44.1,30.03,SSW,202,0.0,-999.0,98,-99.99,,,1.09,Acu-Link.com,2013-02-11 03:20:00,
2013-02-10 22:35:00,44.6,44.1,30.01,SSW,202,0.0,-999.0,98,-99.99,,,1.10,Acu-Link.com,2013-02-11 03:35:00,